sensor_id;sensor_type;location;lat;lon;timestamp;noise_LAeq;noise_LA_min;noise_LA_max;noise_LA01;noise_LA95
72466;Laerm;60471;52.150;4.508;2023-01-15T00:01:32;55.68;46.58;71.11;;
72466;Laerm;60471;52.150;4.508;2023-01-15T00:04:05;55.90;47.27;72.54;;
72466;Laerm;60471;52.150;4.508;2023-01-15T00:06:39;53.18;46.35;70.16;;
72466;Laerm;60471;52.150;4.508;2023-01-15T00:09:07;53.48;46.91;65.26;;
72466;Laerm;60471;52.150;4.508;2023-01-15T00:11:36;56.20;48.29;74.10;;
72466;Laerm;60471;52.150;4.508;2023-01-15T00:14:02;57.23;48.42;76.02;;
72466;Laerm;60471;52.150;4.508;2023-01-15T00:16:29;56.43;48.42;76.55;;
72466;Laerm;60471;52.150;4.508;2023-01-15T00:18:58;55.03;45.93;81.22;;
72466;Laerm;60471;52.150;4.508;2023-01-15T00:21:27;55.23;47.40;76.10;;
72466;Laerm;60471;52.150;4.508;2023-01-15T00:23:54;56.27;45.94;80.17;;
72466;Laerm;60471;52.150;4.508;2023-01-15T00:26:39;57.68;46.47;81.61;;
72466;Laerm;60471;52.150;4.508;2023-01-15T00:29:25;56.32;48.11;72.34;;
72466;Laerm;60471;52.150;4.508;2023-01-15T00:32:03;56.71;46.15;82.10;;
72466;Laerm;60471;52.150;4.508;2023-01-15T00:34:30;53.83;46.15;76.11;;
72466;Laerm;60471;52.150;4.508;2023-01-15T00:36:57;56.01;45.38;72.34;;
72466;Laerm;60471;52.150;4.508;2023-01-15T00:39:24;51.27;43.71;69.67;;
72466;Laerm;60471;52.150;4.508;2023-01-15T00:41:50;53.44;46.30;68.90;;
72466;Laerm;60471;52.150;4.508;2023-01-15T00:44:16;56.75;46.03;84.43;;
72466;Laerm;60471;52.150;4.508;2023-01-15T00:46:43;56.47;47.45;70.61;;
72466;Laerm;60471;52.150;4.508;2023-01-15T00:49:09;56.69;45.54;77.04;;
72466;Laerm;60471;52.150;4.508;2023-01-15T00:51:35;53.67;45.74;73.69;;
72466;Laerm;60471;52.150;4.508;2023-01-15T00:54:02;53.75;45.72;74.30;;
72466;Laerm;60471;52.150;4.508;2023-01-15T00:56:28;54.39;45.08;82.56;;
72466;Laerm;60471;52.150;4.508;2023-01-15T00:58:55;54.13;46.03;73.42;;
72466;Laerm;60471;52.150;4.508;2023-01-15T01:01:21;52.31;44.66;76.48;;
72466;Laerm;60471;52.150;4.508;2023-01-15T01:03:48;54.71;46.85;72.07;;
72466;Laerm;60471;52.150;4.508;2023-01-15T01:06:21;52.67;43.97;72.96;;
72466;Laerm;60471;52.150;4.508;2023-01-15T01:08:47;52.39;43.78;69.79;;
72466;Laerm;60471;52.150;4.508;2023-01-15T01:11:18;52.70;43.84;64.84;;
72466;Laerm;60471;52.150;4.508;2023-01-15T01:13:45;56.56;44.47;83.39;;
72466;Laerm;60471;52.150;4.508;2023-01-15T01:16:27;54.40;45.20;75.66;;
72466;Laerm;60471;52.150;4.508;2023-01-15T01:18:57;55.07;45.46;75.85;;
72466;Laerm;60471;52.150;4.508;2023-01-15T01:21:25;56.83;44.63;86.73;;
72466;Laerm;60471;52.150;4.508;2023-01-15T01:23:51;56.18;45.85;82.13;;
72466;Laerm;60471;52.150;4.508;2023-01-15T01:26:18;58.23;44.91;84.63;;
72466;Laerm;60471;52.150;4.508;2023-01-15T01:28:49;49.50;43.29;65.45;;
72466;Laerm;60471;52.150;4.508;2023-01-15T01:31:16;51.79;44.15;69.78;;
72466;Laerm;60471;52.150;4.508;2023-01-15T01:33:42;58.31;45.71;83.13;;
72466;Laerm;60471;52.150;4.508;2023-01-15T01:36:09;54.76;47.66;72.27;;
72466;Laerm;60471;52.150;4.508;2023-01-15T01:38:35;53.80;45.76;73.39;;
72466;Laerm;60471;52.150;4.508;2023-01-15T01:41:02;56.89;46.05;78.68;;
72466;Laerm;60471;52.150;4.508;2023-01-15T01:43:29;55.72;46.28;73.01;;
72466;Laerm;60471;52.150;4.508;2023-01-15T01:45:56;58.59;45.28;83.72;;
72466;Laerm;60471;52.150;4.508;2023-01-15T01:48:32;53.43;43.72;78.21;;
72466;Laerm;60471;52.150;4.508;2023-01-15T01:51:01;50.66;44.26;69.63;;
72466;Laerm;60471;52.150;4.508;2023-01-15T01:53:29;51.11;43.46;69.01;;
72466;Laerm;60471;52.150;4.508;2023-01-15T01:55:59;53.26;43.72;78.29;;
72466;Laerm;60471;52.150;4.508;2023-01-15T01:58:30;52.91;43.69;77.79;;
72466;Laerm;60471;52.150;4.508;2023-01-15T02:00:58;50.22;43.67;68.49;;
72466;Laerm;60471;52.150;4.508;2023-01-15T02:03:36;56.86;44.78;80.69;;
72466;Laerm;60471;52.150;4.508;2023-01-15T02:06:08;57.48;44.03;79.89;;
72466;Laerm;60471;52.150;4.508;2023-01-15T02:08:35;51.23;43.29;68.43;;
72466;Laerm;60471;52.150;4.508;2023-01-15T02:11:06;50.84;43.39;68.63;;
72466;Laerm;60471;52.150;4.508;2023-01-15T02:13:39;54.76;43.53;79.62;;
72466;Laerm;60471;52.150;4.508;2023-01-15T02:16:15;55.69;45.39;82.85;;
72466;Laerm;60471;52.150;4.508;2023-01-15T02:22:15;57.08;44.71;81.54;;
72466;Laerm;60471;52.150;4.508;2023-01-15T02:27:30;55.09;45.09;79.81;;
72466;Laerm;60471;52.150;4.508;2023-01-15T02:30:09;52.40;43.81;73.03;;
72466;Laerm;60471;52.150;4.508;2023-01-15T02:32:49;55.55;46.54;79.30;;
72466;Laerm;60471;52.150;4.508;2023-01-15T02:35:43;57.28;45.58;79.35;;
72466;Laerm;60471;52.150;4.508;2023-01-15T02:38:17;54.54;45.50;76.15;;
72466;Laerm;60471;52.150;4.508;2023-01-15T02:40:47;50.08;44.01;70.77;;
72466;Laerm;60471;52.150;4.508;2023-01-15T02:43:16;57.71;45.47;79.28;;
72466;Laerm;60471;52.150;4.508;2023-01-15T02:45:48;61.46;44.69;86.93;;
72466;Laerm;60471;52.150;4.508;2023-01-15T02:48:23;56.32;43.82;75.81;;
72466;Laerm;60471;52.150;4.508;2023-01-15T02:51:02;51.36;45.16;76.59;;
72466;Laerm;60471;52.150;4.508;2023-01-15T02:53:34;55.94;45.89;79.46;;
72466;Laerm;60471;52.150;4.508;2023-01-15T02:56:09;50.17;43.57;65.82;;
72466;Laerm;60471;52.150;4.508;2023-01-15T02:58:41;52.63;45.09;76.32;;
72466;Laerm;60471;52.150;4.508;2023-01-15T03:01:19;52.84;44.86;75.72;;
72466;Laerm;60471;52.150;4.508;2023-01-15T03:04:14;59.44;43.99;87.84;;
72466;Laerm;60471;52.150;4.508;2023-01-15T03:06:50;51.03;43.15;72.86;;
72466;Laerm;60471;52.150;4.508;2023-01-15T03:09:18;50.84;43.51;66.99;;
72466;Laerm;60471;52.150;4.508;2023-01-15T03:15:09;52.74;43.46;71.27;;
72466;Laerm;60471;52.150;4.508;2023-01-15T03:17:52;56.96;45.87;81.46;;
72466;Laerm;60471;52.150;4.508;2023-01-15T03:20:26;55.45;45.81;78.87;;
72466;Laerm;60471;52.150;4.508;2023-01-15T03:22:59;52.30;44.00;72.19;;
72466;Laerm;60471;52.150;4.508;2023-01-15T03:25:33;52.94;45.23;72.74;;
72466;Laerm;60471;52.150;4.508;2023-01-15T03:28:03;50.18;43.53;68.42;;
72466;Laerm;60471;52.150;4.508;2023-01-15T03:30:32;58.03;43.90;84.31;;
72466;Laerm;60471;52.150;4.508;2023-01-15T03:32:59;55.21;44.98;79.24;;
72466;Laerm;60471;52.150;4.508;2023-01-15T03:38:18;51.20;43.23;70.47;;
72466;Laerm;60471;52.150;4.508;2023-01-15T03:41:08;56.74;45.80;79.57;;
72466;Laerm;60471;52.150;4.508;2023-01-15T03:49:25;57.26;44.83;82.34;;
72466;Laerm;60471;52.150;4.508;2023-01-15T03:52:21;51.86;43.39;72.57;;
72466;Laerm;60471;52.150;4.508;2023-01-15T03:55:19;53.25;43.19;80.89;;
72466;Laerm;60471;52.150;4.508;2023-01-15T03:57:58;50.22;42.16;66.84;;
72466;Laerm;60471;52.150;4.508;2023-01-15T04:01:04;60.26;42.30;86.79;;
72466;Laerm;60471;52.150;4.508;2023-01-15T04:03:36;52.14;44.89;74.42;;
72466;Laerm;60471;52.150;4.508;2023-01-15T04:06:03;55.66;44.74;79.79;;
72466;Laerm;60471;52.150;4.508;2023-01-15T04:08:36;51.66;43.78;74.07;;
72466;Laerm;60471;52.150;4.508;2023-01-15T04:11:03;53.16;43.18;76.83;;
72466;Laerm;60471;52.150;4.508;2023-01-15T04:13:30;50.70;45.70;65.91;;
72466;Laerm;60471;52.150;4.508;2023-01-15T04:15:57;53.55;45.12;74.19;;
72466;Laerm;60471;52.150;4.508;2023-01-15T04:18:23;59.26;44.73;82.87;;
72466;Laerm;60471;52.150;4.508;2023-01-15T04:20:49;53.97;46.52;76.68;;
72466;Laerm;60471;52.150;4.508;2023-01-15T04:23:16;55.52;45.72;76.95;;
72466;Laerm;60471;52.150;4.508;2023-01-15T04:25:42;56.49;46.77;78.88;;
72466;Laerm;60471;52.150;4.508;2023-01-15T04:28:08;65.37;46.74;92.61;;
72466;Laerm;60471;52.150;4.508;2023-01-15T04:30:35;56.04;47.44;75.95;;
72466;Laerm;60471;52.150;4.508;2023-01-15T04:33:02;61.37;47.84;93.14;;
72466;Laerm;60471;52.150;4.508;2023-01-15T04:35:28;56.44;48.45;78.36;;
72466;Laerm;60471;52.150;4.508;2023-01-15T04:37:58;64.62;46.61;94.38;;
72466;Laerm;60471;52.150;4.508;2023-01-15T04:40:26;56.96;44.78;79.46;;
72466;Laerm;60471;52.150;4.508;2023-01-15T04:43:14;51.11;44.11;74.01;;
72466;Laerm;60471;52.150;4.508;2023-01-15T04:45:59;55.51;45.39;77.01;;
72466;Laerm;60471;52.150;4.508;2023-01-15T04:48:25;50.83;44.56;60.48;;
72466;Laerm;60471;52.150;4.508;2023-01-15T04:50:51;52.06;46.50;70.58;;
72466;Laerm;60471;52.150;4.508;2023-01-15T04:53:18;55.67;45.91;77.20;;
72466;Laerm;60471;52.150;4.508;2023-01-15T04:55:44;58.05;45.91;82.78;;
72466;Laerm;60471;52.150;4.508;2023-01-15T04:58:10;53.35;46.77;69.65;;
72466;Laerm;60471;52.150;4.508;2023-01-15T05:00:36;58.42;47.70;87.62;;
72466;Laerm;60471;52.150;4.508;2023-01-15T05:03:03;53.98;47.09;73.22;;
72466;Laerm;60471;52.150;4.508;2023-01-15T05:05:29;57.93;44.93;86.91;;
72466;Laerm;60471;52.150;4.508;2023-01-15T05:07:57;55.93;47.47;78.96;;
72466;Laerm;60471;52.150;4.508;2023-01-15T05:10:23;56.93;46.97;83.36;;
72466;Laerm;60471;52.150;4.508;2023-01-15T05:12:49;55.02;46.07;70.66;;
72466;Laerm;60471;52.150;4.508;2023-01-15T05:15:16;53.82;44.87;77.35;;
72466;Laerm;60471;52.150;4.508;2023-01-15T05:17:42;54.25;44.18;77.90;;
72466;Laerm;60471;52.150;4.508;2023-01-15T05:20:09;54.62;47.67;80.84;;
72466;Laerm;60471;52.150;4.508;2023-01-15T05:22:35;56.08;46.66;81.88;;
72466;Laerm;60471;52.150;4.508;2023-01-15T05:25:02;55.84;47.63;75.60;;
72466;Laerm;60471;52.150;4.508;2023-01-15T05:27:30;61.10;47.91;89.92;;
72466;Laerm;60471;52.150;4.508;2023-01-15T05:29:56;53.31;45.46;71.02;;
72466;Laerm;60471;52.150;4.508;2023-01-15T05:32:22;57.65;47.63;80.29;;
72466;Laerm;60471;52.150;4.508;2023-01-15T05:34:48;59.62;48.67;83.11;;
72466;Laerm;60471;52.150;4.508;2023-01-15T05:37:14;58.27;48.27;88.48;;
72466;Laerm;60471;52.150;4.508;2023-01-15T05:39:40;68.14;49.32;94.94;;
72466;Laerm;60471;52.150;4.508;2023-01-15T05:42:07;59.35;47.64;82.83;;
72466;Laerm;60471;52.150;4.508;2023-01-15T05:44:33;59.20;49.15;78.88;;
72466;Laerm;60471;52.150;4.508;2023-01-15T05:47:01;56.23;48.42;73.68;;
72466;Laerm;60471;52.150;4.508;2023-01-15T05:49:30;55.77;46.89;82.48;;
72466;Laerm;60471;52.150;4.508;2023-01-15T05:51:59;54.37;46.98;71.76;;
72466;Laerm;60471;52.150;4.508;2023-01-15T05:54:30;62.26;48.06;91.02;;
72466;Laerm;60471;52.150;4.508;2023-01-15T05:56:57;58.19;47.40;79.59;;
72466;Laerm;60471;52.150;4.508;2023-01-15T05:59:26;58.10;48.79;81.14;;
72466;Laerm;60471;52.150;4.508;2023-01-15T06:01:54;56.34;47.95;79.14;;
72466;Laerm;60471;52.150;4.508;2023-01-15T06:04:21;56.48;46.65;79.75;;
72466;Laerm;60471;52.150;4.508;2023-01-15T06:06:50;59.10;47.79;81.12;;
72466;Laerm;60471;52.150;4.508;2023-01-15T06:09:18;65.20;49.18;91.25;;
72466;Laerm;60471;52.150;4.508;2023-01-15T06:11:44;62.33;48.28;81.03;;
72466;Laerm;60471;52.150;4.508;2023-01-15T06:14:11;61.28;48.87;86.15;;
72466;Laerm;60471;52.150;4.508;2023-01-15T06:16:38;65.66;50.26;90.88;;
72466;Laerm;60471;52.150;4.508;2023-01-15T06:19:06;63.14;51.73;87.57;;
72466;Laerm;60471;52.150;4.508;2023-01-15T06:21:34;59.03;49.23;81.92;;
72466;Laerm;60471;52.150;4.508;2023-01-15T06:24:01;56.73;50.93;78.44;;
72466;Laerm;60471;52.150;4.508;2023-01-15T06:26:27;60.28;50.72;81.72;;
72466;Laerm;60471;52.150;4.508;2023-01-15T06:28:55;64.56;50.06;87.93;;
72466;Laerm;60471;52.150;4.508;2023-01-15T06:31:23;58.01;47.02;78.62;;
72466;Laerm;60471;52.150;4.508;2023-01-15T06:33:51;60.93;46.74;88.32;;
72466;Laerm;60471;52.150;4.508;2023-01-15T06:36:20;67.29;50.13;93.66;;
72466;Laerm;60471;52.150;4.508;2023-01-15T06:38:47;62.11;50.05;86.65;;
72466;Laerm;60471;52.150;4.508;2023-01-15T06:41:23;55.41;48.20;72.98;;
72466;Laerm;60471;52.150;4.508;2023-01-15T06:44:17;60.98;48.68;83.47;;
72466;Laerm;60471;52.150;4.508;2023-01-15T06:47:13;56.42;49.47;77.17;;
72466;Laerm;60471;52.150;4.508;2023-01-15T06:49:56;58.08;48.35;77.13;;
72466;Laerm;60471;52.150;4.508;2023-01-15T06:52:25;58.42;49.79;76.00;;
72466;Laerm;60471;52.150;4.508;2023-01-15T06:54:52;55.59;47.94;67.29;;
72466;Laerm;60471;52.150;4.508;2023-01-15T06:57:19;56.04;47.22;77.74;;
72466;Laerm;60471;52.150;4.508;2023-01-15T06:59:48;55.15;47.69;76.40;;
72466;Laerm;60471;52.150;4.508;2023-01-15T07:02:14;58.88;45.95;85.28;;
72466;Laerm;60471;52.150;4.508;2023-01-15T07:04:42;56.30;49.11;75.47;;
72466;Laerm;60471;52.150;4.508;2023-01-15T07:07:08;61.30;48.21;88.59;;
72466;Laerm;60471;52.150;4.508;2023-01-15T07:09:35;62.13;48.81;83.47;;
72466;Laerm;60471;52.150;4.508;2023-01-15T07:12:01;60.73;48.44;87.39;;
72466;Laerm;60471;52.150;4.508;2023-01-15T07:14:28;60.39;47.26;83.65;;
72466;Laerm;60471;52.150;4.508;2023-01-15T07:16:54;57.07;49.71;77.71;;
72466;Laerm;60471;52.150;4.508;2023-01-15T07:19:21;58.42;50.79;77.65;;
72466;Laerm;60471;52.150;4.508;2023-01-15T07:21:47;58.40;49.86;81.45;;
72466;Laerm;60471;52.150;4.508;2023-01-15T07:24:14;59.32;51.23;81.85;;
72466;Laerm;60471;52.150;4.508;2023-01-15T07:26:41;61.84;51.37;79.02;;
72466;Laerm;60471;52.150;4.508;2023-01-15T07:29:08;64.27;50.26;96.00;;
72466;Laerm;60471;52.150;4.508;2023-01-15T07:31:34;57.27;49.57;74.50;;
72466;Laerm;60471;52.150;4.508;2023-01-15T07:34:00;60.79;50.65;87.01;;
72466;Laerm;60471;52.150;4.508;2023-01-15T07:36:27;57.94;49.73;74.62;;
72466;Laerm;60471;52.150;4.508;2023-01-15T07:38:53;63.78;52.14;88.92;;
72466;Laerm;60471;52.150;4.508;2023-01-15T07:41:20;59.49;51.71;82.13;;
72466;Laerm;60471;52.150;4.508;2023-01-15T07:44:05;59.12;49.63;74.28;;
72466;Laerm;60471;52.150;4.508;2023-01-15T07:46:49;62.54;51.96;83.61;;
72466;Laerm;60471;52.150;4.508;2023-01-15T07:49:34;70.20;54.10;99.25;;
72466;Laerm;60471;52.150;4.508;2023-01-15T07:52:20;60.70;50.35;83.97;;
72466;Laerm;60471;52.150;4.508;2023-01-15T07:54:48;61.85;49.66;88.25;;
72466;Laerm;60471;52.150;4.508;2023-01-15T07:57:20;57.99;50.19;78.22;;
72466;Laerm;60471;52.150;4.508;2023-01-15T07:59:48;58.34;51.12;73.10;;
72466;Laerm;60471;52.150;4.508;2023-01-15T08:02:14;57.93;50.67;74.87;;
72466;Laerm;60471;52.150;4.508;2023-01-15T08:04:40;61.40;51.56;87.21;;
72466;Laerm;60471;52.150;4.508;2023-01-15T08:07:07;62.46;49.55;85.63;;
72466;Laerm;60471;52.150;4.508;2023-01-15T08:09:34;60.78;51.55;81.16;;
72466;Laerm;60471;52.150;4.508;2023-01-15T08:12:02;64.62;52.50;89.85;;
72466;Laerm;60471;52.150;4.508;2023-01-15T08:14:47;57.33;49.35;77.74;;
72466;Laerm;60471;52.150;4.508;2023-01-15T08:17:34;60.21;49.74;81.95;;
72466;Laerm;60471;52.150;4.508;2023-01-15T08:20:02;61.24;49.92;83.90;;
72466;Laerm;60471;52.150;4.508;2023-01-15T08:22:30;67.58;54.46;92.24;;
72466;Laerm;60471;52.150;4.508;2023-01-15T08:24:57;69.66;54.11;94.06;;
72466;Laerm;60471;52.150;4.508;2023-01-15T08:27:23;65.50;53.04;85.74;;
72466;Laerm;60471;52.150;4.508;2023-01-15T08:29:49;64.07;53.98;83.54;;
72466;Laerm;60471;52.150;4.508;2023-01-15T08:32:16;64.18;53.38;88.66;;
72466;Laerm;60471;52.150;4.508;2023-01-15T08:34:42;58.72;51.48;84.90;;
72466;Laerm;60471;52.150;4.508;2023-01-15T08:37:08;58.54;50.14;71.48;;
72466;Laerm;60471;52.150;4.508;2023-01-15T08:39:35;57.67;50.29;81.81;;
72466;Laerm;60471;52.150;4.508;2023-01-15T08:42:04;60.37;52.08;82.19;;
72466;Laerm;60471;52.150;4.508;2023-01-15T08:44:30;67.07;52.39;87.29;;
72466;Laerm;60471;52.150;4.508;2023-01-15T08:46:56;61.79;53.30;78.75;;
72466;Laerm;60471;52.150;4.508;2023-01-15T08:49:23;62.49;52.24;80.63;;
72466;Laerm;60471;52.150;4.508;2023-01-15T08:51:49;64.43;54.16;84.91;;
72466;Laerm;60471;52.150;4.508;2023-01-15T08:54:19;60.66;53.76;83.89;;
72466;Laerm;60471;52.150;4.508;2023-01-15T08:56:47;67.60;55.12;91.96;;
72466;Laerm;60471;52.150;4.508;2023-01-15T08:59:13;64.58;52.11;84.84;;
72466;Laerm;60471;52.150;4.508;2023-01-15T09:01:39;64.57;54.75;88.72;;
72466;Laerm;60471;52.150;4.508;2023-01-15T09:04:05;61.13;51.65;86.84;;
72466;Laerm;60471;52.150;4.508;2023-01-15T09:06:32;61.06;52.49;82.69;;
72466;Laerm;60471;52.150;4.508;2023-01-15T09:08:59;63.20;54.14;87.42;;
72466;Laerm;60471;52.150;4.508;2023-01-15T09:11:25;59.39;52.01;75.28;;
72466;Laerm;60471;52.150;4.508;2023-01-15T09:13:51;67.91;54.13;91.42;;
72466;Laerm;60471;52.150;4.508;2023-01-15T09:16:19;64.10;52.78;86.92;;
72466;Laerm;60471;52.150;4.508;2023-01-15T09:18:45;59.59;51.98;75.28;;
72466;Laerm;60471;52.150;4.508;2023-01-15T09:21:11;59.68;52.82;78.80;;
72466;Laerm;60471;52.150;4.508;2023-01-15T09:23:37;61.57;53.31;83.31;;
72466;Laerm;60471;52.150;4.508;2023-01-15T09:26:06;60.50;52.36;78.70;;
72466;Laerm;60471;52.150;4.508;2023-01-15T09:28:33;62.31;54.06;85.40;;
72466;Laerm;60471;52.150;4.508;2023-01-15T09:31:00;58.76;51.89;75.04;;
72466;Laerm;60471;52.150;4.508;2023-01-15T09:33:27;61.18;52.71;82.45;;
72466;Laerm;60471;52.150;4.508;2023-01-15T09:35:53;58.56;51.78;79.14;;
72466;Laerm;60471;52.150;4.508;2023-01-15T09:38:20;60.60;51.90;81.34;;
72466;Laerm;60471;52.150;4.508;2023-01-15T09:41:06;63.21;53.11;87.41;;
72466;Laerm;60471;52.150;4.508;2023-01-15T09:47:25;63.81;52.81;88.84;;
72466;Laerm;60471;52.150;4.508;2023-01-15T09:50:03;62.26;55.09;79.58;;
72466;Laerm;60471;52.150;4.508;2023-01-15T09:52:54;63.93;55.18;83.57;;
72466;Laerm;60471;52.150;4.508;2023-01-15T09:55:29;63.64;55.12;86.59;;
72466;Laerm;60471;52.150;4.508;2023-01-15T09:58:03;63.84;55.53;88.85;;
72466;Laerm;60471;52.150;4.508;2023-01-15T10:00:39;70.95;57.25;96.79;;
72466;Laerm;60471;52.150;4.508;2023-01-15T10:03:29;66.42;54.59;90.93;;
72466;Laerm;60471;52.150;4.508;2023-01-15T10:08:49;62.57;52.66;84.58;;
72466;Laerm;60471;52.150;4.508;2023-01-15T10:13:59;60.96;52.30;82.34;;
72466;Laerm;60471;52.150;4.508;2023-01-15T10:16:31;64.55;54.64;85.90;;
72466;Laerm;60471;52.150;4.508;2023-01-15T10:19:01;68.95;54.83;92.51;;
72466;Laerm;60471;52.150;4.508;2023-01-15T10:24:38;63.12;54.10;84.31;;
72466;Laerm;60471;52.150;4.508;2023-01-15T10:27:21;63.61;53.60;91.22;;
72466;Laerm;60471;52.150;4.508;2023-01-15T10:29:54;64.55;54.82;89.99;;
72466;Laerm;60471;52.150;4.508;2023-01-15T10:38:31;63.93;54.97;83.75;;
72466;Laerm;60471;52.150;4.508;2023-01-15T10:44:01;66.79;55.82;87.49;;
72466;Laerm;60471;52.150;4.508;2023-01-15T10:46:36;67.46;55.38;95.50;;
72466;Laerm;60471;52.150;4.508;2023-01-15T10:49:13;64.92;55.15;81.28;;
72466;Laerm;60471;52.150;4.508;2023-01-15T10:51:45;62.84;55.34;83.73;;
72466;Laerm;60471;52.150;4.508;2023-01-15T10:54:28;65.18;53.96;83.90;;
72466;Laerm;60471;52.150;4.508;2023-01-15T10:57:13;65.36;53.74;87.87;;
72466;Laerm;60471;52.150;4.508;2023-01-15T10:59:55;63.61;55.01;82.36;;
72466;Laerm;60471;52.150;4.508;2023-01-15T11:04:54;64.56;53.77;87.17;;
72466;Laerm;60471;52.150;4.508;2023-01-15T11:07:32;66.82;56.25;88.92;;
72466;Laerm;60471;52.150;4.508;2023-01-15T11:10:05;64.02;55.44;88.12;;
72466;Laerm;60471;52.150;4.508;2023-01-15T11:12:33;62.55;54.77;84.44;;
72466;Laerm;60471;52.150;4.508;2023-01-15T11:15:23;63.23;54.28;82.57;;
72466;Laerm;60471;52.150;4.508;2023-01-15T11:18:25;62.30;54.15;83.04;;
72466;Laerm;60471;52.150;4.508;2023-01-15T11:21:17;66.78;53.71;89.95;;
72466;Laerm;60471;52.150;4.508;2023-01-15T11:23:45;63.70;54.30;88.79;;
72466;Laerm;60471;52.150;4.508;2023-01-15T11:26:26;66.96;55.62;89.90;;
72466;Laerm;60471;52.150;4.508;2023-01-15T11:28:55;61.04;53.98;73.80;;
72466;Laerm;60471;52.150;4.508;2023-01-15T11:31:22;64.12;54.85;86.02;;
72466;Laerm;60471;52.150;4.508;2023-01-15T11:33:59;68.42;55.44;89.47;;
72466;Laerm;60471;52.150;4.508;2023-01-15T11:36:28;66.17;56.08;90.96;;
72466;Laerm;60471;52.150;4.508;2023-01-15T11:38:55;65.44;55.62;89.20;;
72466;Laerm;60471;52.150;4.508;2023-01-15T11:44:12;69.38;56.81;96.41;;
72466;Laerm;60471;52.150;4.508;2023-01-15T11:46:57;66.38;58.29;87.90;;
72466;Laerm;60471;52.150;4.508;2023-01-15T11:49:50;66.97;54.97;90.75;;
72466;Laerm;60471;52.150;4.508;2023-01-15T11:52:41;67.15;56.21;87.90;;
72466;Laerm;60471;52.150;4.508;2023-01-15T11:55:15;65.22;56.23;84.63;;
72466;Laerm;60471;52.150;4.508;2023-01-15T11:57:44;64.27;53.48;89.67;;
72466;Laerm;60471;52.150;4.508;2023-01-15T12:00:31;67.79;57.23;93.96;;
72466;Laerm;60471;52.150;4.508;2023-01-15T12:03:17;71.70;58.18;97.98;;
72466;Laerm;60471;52.150;4.508;2023-01-15T12:06:06;66.20;57.04;83.07;;
72466;Laerm;60471;52.150;4.508;2023-01-15T12:08:58;68.57;57.99;93.96;;
72466;Laerm;60471;52.150;4.508;2023-01-15T12:15:37;63.01;54.50;87.50;;
72466;Laerm;60471;52.150;4.508;2023-01-15T12:18:45;63.03;55.26;80.57;;
72466;Laerm;60471;52.150;4.508;2023-01-15T12:21:43;64.51;54.27;84.49;;
72466;Laerm;60471;52.150;4.508;2023-01-15T12:24:45;67.50;54.27;96.70;;
72466;Laerm;60471;52.150;4.508;2023-01-15T12:30:43;67.41;54.87;90.31;;
72466;Laerm;60471;52.150;4.508;2023-01-15T12:33:44;63.88;53.91;90.14;;
72466;Laerm;60471;52.150;4.508;2023-01-15T12:39:06;62.51;55.54;84.54;;
72466;Laerm;60471;52.150;4.508;2023-01-15T12:41:40;63.45;55.13;88.44;;
72466;Laerm;60471;52.150;4.508;2023-01-15T12:44:50;66.67;54.78;89.76;;
72466;Laerm;60471;52.150;4.508;2023-01-15T12:55:55;65.25;56.35;87.87;;
72466;Laerm;60471;52.150;4.508;2023-01-15T12:58:39;68.49;56.03;89.44;;
72466;Laerm;60471;52.150;4.508;2023-01-15T13:01:16;62.58;54.68;82.92;;
72466;Laerm;60471;52.150;4.508;2023-01-15T13:03:55;62.89;52.55;90.37;;
72466;Laerm;60471;52.150;4.508;2023-01-15T13:06:24;67.30;55.82;91.55;;
72466;Laerm;60471;52.150;4.508;2023-01-15T13:09:11;66.34;54.66;87.41;;
72466;Laerm;60471;52.150;4.508;2023-01-15T13:11:38;62.58;55.18;78.32;;
72466;Laerm;60471;52.150;4.508;2023-01-15T13:14:14;65.18;56.00;86.60;;
72466;Laerm;60471;52.150;4.508;2023-01-15T13:19:38;67.50;56.33;97.59;;
72466;Laerm;60471;52.150;4.508;2023-01-15T13:22:17;66.71;56.99;87.65;;
72466;Laerm;60471;52.150;4.508;2023-01-15T13:25:03;65.96;55.25;89.92;;
72466;Laerm;60471;52.150;4.508;2023-01-15T13:33:36;65.58;57.26;87.29;;
72466;Laerm;60471;52.150;4.508;2023-01-15T13:36:19;68.21;56.91;89.65;;
72466;Laerm;60471;52.150;4.508;2023-01-15T13:38:53;65.40;55.39;87.74;;
72466;Laerm;60471;52.150;4.508;2023-01-15T13:41:25;64.83;53.97;89.46;;
72466;Laerm;60471;52.150;4.508;2023-01-15T13:44:19;64.40;54.87;88.82;;
72466;Laerm;60471;52.150;4.508;2023-01-15T13:47:01;61.62;54.91;76.41;;
72466;Laerm;60471;52.150;4.508;2023-01-15T13:49:36;63.38;55.13;84.56;;
72466;Laerm;60471;52.150;4.508;2023-01-15T13:52:06;63.96;54.99;91.82;;
72466;Laerm;60471;52.150;4.508;2023-01-15T13:54:42;66.25;56.83;90.64;;
72466;Laerm;60471;52.150;4.508;2023-01-15T13:57:22;67.40;56.72;87.65;;
72466;Laerm;60471;52.150;4.508;2023-01-15T13:59:49;66.16;56.95;90.27;;
72466;Laerm;60471;52.150;4.508;2023-01-15T14:02:32;62.08;54.00;79.49;;
72466;Laerm;60471;52.150;4.508;2023-01-15T14:05:33;64.26;54.87;84.77;;
72466;Laerm;60471;52.150;4.508;2023-01-15T14:07:59;62.49;54.81;80.39;;
72466;Laerm;60471;52.150;4.508;2023-01-15T14:10:34;64.72;54.25;87.59;;
72466;Laerm;60471;52.150;4.508;2023-01-15T14:16:16;64.50;54.72;91.51;;
72466;Laerm;60471;52.150;4.508;2023-01-15T14:21:58;61.67;54.28;74.28;;
72466;Laerm;60471;52.150;4.508;2023-01-15T14:25:17;64.68;54.44;91.11;;
72466;Laerm;60471;52.150;4.508;2023-01-15T14:36:29;60.65;52.10;78.10;;
72466;Laerm;60471;52.150;4.508;2023-01-15T14:39:01;63.00;52.68;87.27;;
72466;Laerm;60471;52.150;4.508;2023-01-15T14:41:35;62.31;55.03;81.71;;
72466;Laerm;60471;52.150;4.508;2023-01-15T14:44:32;61.75;53.37;76.44;;
72466;Laerm;60471;52.150;4.508;2023-01-15T14:47:03;62.13;54.58;77.84;;
72466;Laerm;60471;52.150;4.508;2023-01-15T14:49:43;61.77;52.57;85.44;;
72466;Laerm;60471;52.150;4.508;2023-01-15T14:52:23;61.34;53.90;78.71;;
72466;Laerm;60471;52.150;4.508;2023-01-15T14:54:52;60.30;52.20;77.73;;
72466;Laerm;60471;52.150;4.508;2023-01-15T14:57:22;59.52;52.74;70.90;;
72466;Laerm;60471;52.150;4.508;2023-01-15T14:59:56;60.17;53.82;77.75;;
72466;Laerm;60471;52.150;4.508;2023-01-15T15:02:37;59.96;52.97;73.05;;
72466;Laerm;60471;52.150;4.508;2023-01-15T15:05:15;60.16;52.61;76.27;;
72466;Laerm;60471;52.150;4.508;2023-01-15T15:07:46;60.62;52.74;67.82;;
72466;Laerm;60471;52.150;4.508;2023-01-15T15:10:36;60.70;51.98;69.87;;
72466;Laerm;60471;52.150;4.508;2023-01-15T15:13:32;60.16;53.12;75.53;;
72466;Laerm;60471;52.150;4.508;2023-01-15T15:16:12;61.44;52.84;80.97;;
72466;Laerm;60471;52.150;4.508;2023-01-15T15:18:47;62.86;55.23;71.00;;
72466;Laerm;60471;52.150;4.508;2023-01-15T15:21:29;61.38;55.95;70.07;;
72466;Laerm;60471;52.150;4.508;2023-01-15T15:24:15;62.68;54.61;76.84;;
72466;Laerm;60471;52.150;4.508;2023-01-15T15:26:44;63.02;56.45;77.59;;
72466;Laerm;60471;52.150;4.508;2023-01-15T15:29:14;62.61;54.75;76.42;;
72466;Laerm;60471;52.150;4.508;2023-01-15T15:31:46;60.39;53.74;70.61;;
72466;Laerm;60471;52.150;4.508;2023-01-15T15:36:56;60.66;53.27;71.37;;
72466;Laerm;60471;52.150;4.508;2023-01-15T15:42:24;60.78;53.16;68.36;;
72466;Laerm;60471;52.150;4.508;2023-01-15T15:45:29;59.94;52.70;73.22;;
72466;Laerm;60471;52.150;4.508;2023-01-15T15:48:32;62.46;54.28;72.40;;
72466;Laerm;60471;52.150;4.508;2023-01-15T15:54:25;62.42;53.58;76.50;;